Time;durP1;ratioP1;P1;durP2;ratioP2;P2;SDS_P1;SDS_P2;PMS_P1;PMS_P2;Temp;Humidity;BMP_temperature;BMP_pressure;BME280_temperature;BME280_humidity;BME280_pressure;Samples;Min_cycle;Max_cycle;Signal;HPM_P1;HPM_P2
2021/11/28 00:00:31;;;;;;;0.73;0.05;;;;;;;;;;5054298;28;20052;-63
2021/11/28 00:02:56;;;;;;;1.15;0.30;;;;;;;;;;5054382;28;20403;-63
2021/11/28 00:05:24;;;;;;;0.90;0.25;;;;;;;;;;5054535;28;20265;-64
2021/11/28 00:10:47;;;;;;;1.10;0.13;;;;;;;;;;5054379;28;20028;-64
2021/11/28 00:13:24;;;;;;;1.65;0.22;;;;;;;;;;5054091;28;20108;-65
2021/11/28 00:15:49;;;;;;;0.30;0.10;;;;;;;;;;5054293;28;20104;-64
2021/11/28 00:18:14;;;;;;;0.45;0.13;;;;;;;;;;5053821;28;20541;-65
2021/11/28 00:20:39;;;;;;;0.43;0.00;;;;;;;;;;5054239;28;20028;-64
2021/11/28 00:23:04;;;;;;;2.17;0.30;;;;;;;;;;5054067;28;20036;-63
2021/11/28 00:25:30;;;;;;;0.53;0.33;;;;;;;;;;5054043;28;20036;-64
2021/11/28 00:27:56;;;;;;;0.65;0.30;;;;;;;;;;5053951;28;20277;-64
2021/11/28 00:30:24;;;;;;;1.33;0.30;;;;;;;;;;5053810;28;20013;-65
2021/11/28 00:32:50;;;;;;;1.67;0.20;;;;;;;;;;5053964;28;20021;-64
2021/11/28 00:35:15;;;;;;;1.42;0.20;;;;;;;;;;5053550;28;20024;-65
2021/11/28 00:37:40;;;;;;;2.38;0.77;;;;;;;;;;5053889;28;20025;-64
2021/11/28 00:40:05;;;;;;;0.82;0.10;;;;;;;;;;5038847;28;20018;-65
2021/11/28 00:42:31;;;;;;;1.23;0.10;;;;;;;;;;5033772;28;20076;-65
2021/11/28 00:44:56;;;;;;;0.38;0.10;;;;;;;;;;5033737;28;20018;-65
2021/11/28 00:47:21;;;;;;;2.37;0.20;;;;;;;;;;5033686;28;20029;-64
2021/11/28 00:50:02;;;;;;;0.45;0.20;;;;;;;;;;5033696;28;20258;-64
2021/11/28 00:52:27;;;;;;;2.00;0.22;;;;;;;;;;5033385;28;20353;-63
2021/11/28 00:54:52;;;;;;;1.03;0.10;;;;;;;;;;5033623;28;20048;-63
2021/11/28 00:57:17;;;;;;;0.77;0.20;;;;;;;;;;5033396;28;20247;-64
2021/11/28 00:59:42;;;;;;;1.13;0.47;;;;;;;;;;5033539;28;20705;-65
2021/11/28 01:02:08;;;;;;;0.93;0.20;;;;;;;;;;5033132;28;20258;-65
2021/11/28 01:04:33;;;;;;;0.50;0.20;;;;;;;;;;5033100;28;20278;-64
2021/11/28 01:06:58;;;;;;;0.50;0.10;;;;;;;;;;5033307;28;20726;-64
2021/11/28 01:09:24;;;;;;;0.38;0.20;;;;;;;;;;5033189;28;20239;-64
2021/11/28 01:11:49;;;;;;;0.55;0.25;;;;;;;;;;5033082;28;20014;-64
2021/11/28 01:14:14;;;;;;;0.87;0.20;;;;;;;;;;5032856;28;20026;-65
2021/11/28 01:16:43;;;;;;;1.30;0.30;;;;;;;;;;5033323;28;20524;-64
2021/11/28 01:19:08;;;;;;;0.43;0.15;;;;;;;;;;5032992;28;20028;-64
2021/11/28 01:21:34;;;;;;;0.33;0.10;;;;;;;;;;5033434;28;20025;-63
2021/11/28 01:23:59;;;;;;;0.57;0.20;;;;;;;;;;5032928;28;20741;-64
2021/11/28 01:26:26;;;;;;;1.48;0.20;;;;;;;;;;5032702;28;20250;-65
2021/11/28 01:28:52;;;;;;;1.02;0.40;;;;;;;;;;5032863;28;20013;-64
2021/11/28 01:31:17;;;;;;;1.73;0.10;;;;;;;;;;5031438;28;20087;-65
2021/11/28 01:33:43;;;;;;;0.28;0.10;;;;;;;;;;5032824;28;20249;-65
2021/11/28 01:36:08;;;;;;;0.47;0.20;;;;;;;;;;5032746;28;20449;-65
2021/11/28 01:38:33;;;;;;;1.77;0.30;;;;;;;;;;5034724;28;20263;-64
2021/11/28 01:40:58;;;;;;;2.57;0.27;;;;;;;;;;5052714;28;20261;-64
2021/11/28 01:43:23;;;;;;;1.30;0.17;;;;;;;;;;5052541;28;20248;-64
2021/11/28 01:45:52;;;;;;;0.40;0.08;;;;;;;;;;5052395;28;20020;-64
2021/11/28 01:48:18;;;;;;;0.93;0.20;;;;;;;;;;5052603;28;20017;-64
2021/11/28 01:50:44;;;;;;;1.15;0.17;;;;;;;;;;5052538;28;20017;-65
2021/11/28 01:53:11;;;;;;;0.28;0.10;;;;;;;;;;5052367;28;20017;-64
2021/11/28 01:55:37;;;;;;;1.27;0.85;;;;;;;;;;5052502;28;20021;-64
2021/11/28 01:58:03;;;;;;;0.52;0.20;;;;;;;;;;5052278;28;20098;-65
2021/11/28 02:00:30;;;;;;;0.50;0.20;;;;;;;;;;5052285;28;20017;-64
2021/11/28 02:02:56;;;;;;;0.32;0.10;;;;;;;;;;5044851;22;20509;-64
2021/11/28 02:05:22;;;;;;;0.95;0.10;;;;;;;;;;5032057;28;20025;-65
2021/11/28 02:07:47;;;;;;;0.77;0.30;;;;;;;;;;5032300;28;20063;-64
2021/11/28 02:10:13;;;;;;;0.30;0.10;;;;;;;;;;5032376;28;20017;-64
2021/11/28 02:12:38;;;;;;;1.58;0.22;;;;;;;;;;5032461;28;20152;-64
2021/11/28 02:15:04;;;;;;;0.65;0.05;;;;;;;;;;5032211;28;20507;-65
2021/11/28 02:17:29;;;;;;;1.67;0.52;;;;;;;;;;5031801;28;20026;-65
2021/11/28 02:19:54;;;;;;;0.70;0.17;;;;;;;;;;5032051;28;20409;-64
2021/11/28 02:22:20;;;;;;;2.43;0.30;;;;;;;;;;5031975;28;20032;-65
2021/11/28 02:24:46;;;;;;;0.35;0.13;;;;;;;;;;5032235;28;20293;-64
2021/11/28 02:27:11;;;;;;;1.20;0.35;;;;;;;;;;5032023;28;20480;-64
2021/11/28 02:29:40;;;;;;;1.17;0.57;;;;;;;;;;5032199;28;20025;-64
2021/11/28 02:32:05;;;;;;;0.68;0.20;;;;;;;;;;5031994;28;20414;-64
2021/11/28 02:34:30;;;;;;;0.90;0.20;;;;;;;;;;5031985;28;20032;-64
2021/11/28 02:36:56;;;;;;;0.75;0.10;;;;;;;;;;5032051;28;20104;-64
2021/11/28 02:39:21;;;;;;;1.43;0.30;;;;;;;;;;5031802;28;20403;-64
2021/11/28 02:41:47;;;;;;;1.75;0.30;;;;;;;;;;5031998;28;20270;-64
2021/11/28 02:44:12;;;;;;;0.38;0.20;;;;;;;;;;5031742;28;20019;-64
2021/11/28 02:46:38;;;;;;;1.48;0.40;;;;;;;;;;5031942;28;20048;-64
2021/11/28 02:49:03;;;;;;;1.77;0.20;;;;;;;;;;5031933;28;20026;-65
2021/11/28 02:51:28;;;;;;;0.73;0.30;;;;;;;;;;5031915;28;20162;-64
2021/11/28 02:53:53;;;;;;;0.28;0.20;;;;;;;;;;5031898;28;20251;-63
2021/11/28 02:56:18;;;;;;;1.83;0.25;;;;;;;;;;5031577;28;20022;-64
2021/11/28 02:58:46;;;;;;;0.22;0.10;;;;;;;;;;5031817;28;20025;-65
2021/11/28 03:01:13;;;;;;;0.30;0.20;;;;;;;;;;5031628;28;20013;-64
2021/11/28 03:03:39;;;;;;;1.20;0.10;;;;;;;;;;5031702;28;20116;-64
2021/11/28 03:06:04;;;;;;;0.55;0.35;;;;;;;;;;5031636;28;20180;-64
2021/11/28 03:08:29;;;;;;;1.02;0.30;;;;;;;;;;5031581;28;20021;-64
2021/11/28 03:10:55;;;;;;;0.63;0.20;;;;;;;;;;5031630;28;20557;-64
2021/11/28 03:13:24;;;;;;;1.08;0.20;;;;;;;;;;5031444;28;20255;-64
2021/11/28 03:15:51;;;;;;;0.70;0.10;;;;;;;;;;5031716;28;20022;-65
2021/11/28 03:18:18;;;;;;;0.55;0.17;;;;;;;;;;5031454;28;20017;-64
2021/11/28 03:20:43;;;;;;;0.65;0.10;;;;;;;;;;5032030;28;20368;-65
2021/11/28 03:23:10;;;;;;;1.30;0.25;;;;;;;;;;5031584;28;20148;-64
2021/11/28 03:25:35;;;;;;;0.30;0.10;;;;;;;;;;5031615;28;20663;-64
2021/11/28 03:28:00;;;;;;;0.93;0.22;;;;;;;;;;5031676;28;20022;-65
2021/11/28 03:30:25;;;;;;;1.38;0.10;;;;;;;;;;5035315;28;20021;-64
2021/11/28 03:32:51;;;;;;;1.40;0.27;;;;;;;;;;5035118;28;20469;-64
2021/11/28 03:35:16;;;;;;;2.67;0.30;;;;;;;;;;5034908;28;20289;-65
2021/11/28 03:37:42;;;;;;;0.70;0.30;;;;;;;;;;5035010;28;20026;-65
2021/11/28 03:40:08;;;;;;;0.63;0.30;;;;;;;;;;5034876;28;20022;-64
2021/11/28 03:42:33;;;;;;;0.65;0.20;;;;;;;;;;5034874;28;20029;-64
2021/11/28 03:44:58;;;;;;;2.00;0.30;;;;;;;;;;5034929;28;20013;-64
2021/11/28 03:47:24;;;;;;;1.63;0.40;;;;;;;;;;5034715;28;20097;-64
2021/11/28 03:49:49;;;;;;;0.45;0.30;;;;;;;;;;5034756;28;20045;-65
2021/11/28 03:52:14;;;;;;;0.82;0.40;;;;;;;;;;5034364;28;20126;-63
2021/11/28 03:54:39;;;;;;;1.45;0.47;;;;;;;;;;5034771;28;20033;-64
2021/11/28 03:57:04;;;;;;;0.40;0.13;;;;;;;;;;5034666;28;20029;-64
2021/11/28 03:59:30;;;;;;;0.50;0.00;;;;;;;;;;5034661;28;20021;-65
2021/11/28 04:01:55;;;;;;;0.87;0.10;;;;;;;;;;5034439;28;20045;-64
2021/11/28 04:04:20;;;;;;;0.95;0.20;;;;;;;;;;5034251;28;20274;-64
2021/11/28 04:06:45;;;;;;;0.43;0.20;;;;;;;;;;5034752;28;20025;-64
2021/11/28 04:09:12;;;;;;;0.15;0.00;;;;;;;;;;5034213;28;20484;-64
2021/11/28 04:11:37;;;;;;;2.67;0.20;;;;;;;;;;5034598;28;20473;-64
2021/11/28 04:14:03;;;;;;;1.20;0.20;;;;;;;;;;5034265;28;20026;-64
2021/11/28 04:16:28;;;;;;;0.63;0.10;;;;;;;;;;5034295;28;20024;-65
2021/11/28 04:18:55;;;;;;;0.87;0.10;;;;;;;;;;5016675;28;20010;-64
2021/11/28 04:21:20;;;;;;;1.67;0.40;;;;;;;;;;5016379;28;20254;-64
2021/11/28 04:23:45;;;;;;;0.80;0.17;;;;;;;;;;5034197;28;20058;-64
2021/11/28 04:26:10;;;;;;;0.20;0.10;;;;;;;;;;5033821;28;20029;-64
2021/11/28 04:28:36;;;;;;;0.93;0.40;;;;;;;;;;5034329;28;20041;-64
2021/11/28 04:31:01;;;;;;;1.42;0.30;;;;;;;;;;5034100;28;20718;-64
2021/11/28 04:33:26;;;;;;;1.90;0.45;;;;;;;;;;5016183;28;20048;-64
2021/11/28 04:35:51;;;;;;;1.70;0.50;;;;;;;;;;5033966;28;20407;-63
2021/11/28 04:38:17;;;;;;;0.57;0.10;;;;;;;;;;5033680;28;20251;-65
2021/11/28 04:40:42;;;;;;;0.80;0.10;;;;;;;;;;5033564;28;20033;-65
2021/11/28 04:43:07;;;;;;;0.37;0.00;;;;;;;;;;5034007;28;20254;-65
2021/11/28 04:45:32;;;;;;;1.15;0.20;;;;;;;;;;5033686;28;20848;-64
2021/11/28 04:47:57;;;;;;;1.03;0.20;;;;;;;;;;5033657;28;20033;-64
2021/11/28 04:50:23;;;;;;;0.68;0.22;;;;;;;;;;5033991;28;20729;-65
2021/11/28 04:52:48;;;;;;;1.25;0.20;;;;;;;;;;5033730;28;20021;-64
2021/11/28 04:55:13;;;;;;;0.35;0.10;;;;;;;;;;5033401;28;20072;-64
2021/11/28 04:57:39;;;;;;;0.25;0.10;;;;;;;;;;5033595;28;20029;-64
2021/11/28 05:00:09;;;;;;;0.22;0.10;;;;;;;;;;5033274;28;20376;-65
2021/11/28 05:02:34;;;;;;;0.63;0.10;;;;;;;;;;5033037;28;20412;-64
2021/11/28 05:04:59;;;;;;;0.40;0.10;;;;;;;;;;5033271;28;20473;-64
2021/11/28 05:07:24;;;;;;;0.55;0.05;;;;;;;;;;5033282;28;20059;-65
2021/11/28 05:09:50;;;;;;;0.70;0.10;;;;;;;;;;5033326;28;20021;-64
2021/11/28 05:12:15;;;;;;;0.85;0.20;;;;;;;;;;5032967;28;20461;-64
2021/11/28 05:14:40;;;;;;;0.95;0.13;;;;;;;;;;5033276;28;20029;-64
2021/11/28 05:17:05;;;;;;;1.50;0.30;;;;;;;;;;5033392;28;20025;-63
2021/11/28 05:19:30;;;;;;;1.10;0.00;;;;;;;;;;5033100;28;20282;-64
2021/11/28 05:21:56;;;;;;;0.30;0.20;;;;;;;;;;5032979;28;20048;-64
2021/11/28 05:24:21;;;;;;;0.98;0.30;;;;;;;;;;5032791;28;20067;-64
2021/11/28 05:26:47;;;;;;;1.52;0.30;;;;;;;;;;5033021;28;20097;-64
2021/11/28 05:29:14;;;;;;;0.88;0.20;;;;;;;;;;5032800;28;20021;-64
2021/11/28 05:31:39;;;;;;;1.40;0.10;;;;;;;;;;5032992;28;20013;-63
2021/11/28 05:34:04;;;;;;;1.13;0.30;;;;;;;;;;5032998;28;20026;-64
2021/11/28 05:36:29;;;;;;;1.13;0.30;;;;;;;;;;5032652;28;20618;-64
2021/11/28 05:38:54;;;;;;;0.35;0.10;;;;;;;;;;5032670;28;20247;-64
2021/11/28 05:41:20;;;;;;;0.90;0.20;;;;;;;;;;5032745;28;20144;-63
2021/11/28 05:43:47;;;;;;;1.80;0.30;;;;;;;;;;5032762;28;20243;-63
2021/11/28 05:46:13;;;;;;;2.53;0.65;;;;;;;;;;5032424;28;20017;-63
2021/11/28 05:48:38;;;;;;;0.47;0.10;;;;;;;;;;5032974;28;20097;-64
2021/11/28 05:51:04;;;;;;;0.20;0.05;;;;;;;;;;5031702;28;20017;-65
2021/11/28 05:53:29;;;;;;;1.05;0.30;;;;;;;;;;5032700;28;20027;-64
2021/11/28 05:55:54;;;;;;;0.63;0.20;;;;;;;;;;5032510;28;20024;-64
2021/11/28 05:58:20;;;;;;;0.77;0.37;;;;;;;;;;5032313;28;20029;-63
2021/11/28 06:00:45;;;;;;;1.17;0.15;;;;;;;;;;5032559;28;20258;-64
2021/11/28 06:03:10;;;;;;;1.60;0.30;;;;;;;;;;5032196;28;20477;-63
2021/11/28 06:05:36;;;;;;;0.10;0.00;;;;;;;;;;5032345;28;20278;-64
2021/11/28 06:08:02;;;;;;;1.73;0.40;;;;;;;;;;5032257;28;20484;-63
2021/11/28 06:10:27;;;;;;;0.88;0.30;;;;;;;;;;5032045;28;20021;-64
2021/11/28 06:12:52;;;;;;;0.28;0.20;;;;;;;;;;5032455;28;20025;-63
2021/11/28 06:15:17;;;;;;;0.22;0.20;;;;;;;;;;5032145;28;20406;-63
2021/11/28 06:17:42;;;;;;;0.43;0.20;;;;;;;;;;5032329;28;20104;-64
2021/11/28 06:20:08;;;;;;;0.27;0.20;;;;;;;;;;5032488;28;20140;-63
2021/11/28 06:22:34;;;;;;;0.40;0.20;;;;;;;;;;5032177;28;20250;-64
2021/11/28 06:24:59;;;;;;;0.75;0.28;;;;;;;;;;5032208;28;20022;-63
2021/11/28 06:27:24;;;;;;;1.20;0.20;;;;;;;;;;5032019;28;20013;-63
2021/11/28 06:29:49;;;;;;;1.73;0.30;;;;;;;;;;5032068;28;20033;-63
2021/11/28 06:32:15;;;;;;;0.88;0.10;;;;;;;;;;5031699;28;20022;-63
2021/11/28 06:34:41;;;;;;;0.63;0.20;;;;;;;;;;5032225;28;20105;-64
2021/11/28 06:37:06;;;;;;;0.93;0.20;;;;;;;;;;5031979;28;20464;-64
2021/11/28 06:39:31;;;;;;;1.43;0.13;;;;;;;;;;5032006;28;20543;-63
2021/11/28 06:41:56;;;;;;;0.97;0.20;;;;;;;;;;5032077;28;20525;-64
2021/11/28 06:44:21;;;;;;;0.73;0.20;;;;;;;;;;5031108;28;20483;-64
2021/11/28 06:46:46;;;;;;;1.08;0.28;;;;;;;;;;5031978;28;20029;-63
2021/11/28 06:49:12;;;;;;;1.02;0.22;;;;;;;;;;5031827;28;20017;-64
2021/11/28 06:51:37;;;;;;;2.13;0.30;;;;;;;;;;5032041;28;20052;-63
2021/11/28 06:54:02;;;;;;;1.33;0.28;;;;;;;;;;5031767;28;20258;-64
2021/11/28 06:56:27;;;;;;;1.03;0.40;;;;;;;;;;5031815;28;20021;-64
2021/11/28 06:58:52;;;;;;;0.20;0.10;;;;;;;;;;5031975;28;20291;-64
2021/11/28 07:01:17;;;;;;;1.37;0.30;;;;;;;;;;5014000;28;20033;-64
2021/11/28 07:03:43;;;;;;;0.55;0.08;;;;;;;;;;5034583;28;20314;-64
2021/11/28 07:06:08;;;;;;;0.13;0.10;;;;;;;;;;5035353;28;20029;-63
2021/11/28 07:08:33;;;;;;;0.50;0.20;;;;;;;;;;5035472;28;20251;-63
2021/11/28 07:10:58;;;;;;;0.75;0.20;;;;;;;;;;5035483;28;20024;-64
2021/11/28 07:13:24;;;;;;;0.68;0.10;;;;;;;;;;5035733;28;20017;-64
2021/11/28 07:15:50;;;;;;;0.50;0.10;;;;;;;;;;5035482;28;20025;-64
2021/11/28 07:18:15;;;;;;;1.27;0.43;;;;;;;;;;5035151;28;20033;-63
2021/11/28 07:20:40;;;;;;;2.00;0.17;;;;;;;;;;5035549;28;20250;-63
2021/11/28 07:23:05;;;;;;;0.33;0.10;;;;;;;;;;5035160;28;20264;-64
2021/11/28 07:25:30;;;;;;;0.85;0.10;;;;;;;;;;5035108;28;20275;-63
2021/11/28 07:27:56;;;;;;;0.40;0.20;;;;;;;;;;5035203;28;20346;-64
2021/11/28 07:30:22;;;;;;;0.47;0.20;;;;;;;;;;5035017;28;20022;-63
2021/11/28 07:32:47;;;;;;;0.50;0.10;;;;;;;;;;5035296;28;20024;-63
2021/11/28 07:35:13;;;;;;;2.60;0.20;;;;;;;;;;5035025;28;20402;-64
2021/11/28 07:37:38;;;;;;;0.43;0.20;;;;;;;;;;5035135;28;20025;-64
2021/11/28 07:40:03;;;;;;;0.63;0.20;;;;;;;;;;5034716;28;20534;-64
2021/11/28 07:42:28;;;;;;;1.35;0.28;;;;;;;;;;5034822;28;20025;-64
2021/11/28 07:44:54;;;;;;;0.70;0.13;;;;;;;;;;5034957;28;20026;-64
2021/11/28 07:47:19;;;;;;;0.57;0.25;;;;;;;;;;5016980;28;20250;-64
2021/11/28 07:49:44;;;;;;;0.47;0.28;;;;;;;;;;5035146;28;20229;-63
2021/11/28 07:52:09;;;;;;;0.13;0.10;;;;;;;;;;5034722;28;20273;-64
2021/11/28 07:54:35;;;;;;;0.30;0.10;;;;;;;;;;5034779;28;20125;-64
2021/11/28 07:57:02;;;;;;;0.73;0.20;;;;;;;;;;5034652;28;20286;-63
2021/11/28 07:59:27;;;;;;;0.75;0.20;;;;;;;;;;5034634;28;20024;-64
2021/11/28 08:01:53;;;;;;;2.47;0.15;;;;;;;;;;5016641;28;20037;-64
2021/11/28 08:04:18;;;;;;;0.75;0.30;;;;;;;;;;5034202;28;20420;-64
2021/11/28 08:06:43;;;;;;;0.70;0.17;;;;;;;;;;5034637;28;20017;-64
2021/11/28 08:09:08;;;;;;;0.73;0.23;;;;;;;;;;5034512;28;20026;-64
2021/11/28 08:11:33;;;;;;;0.50;0.30;;;;;;;;;;5034441;28;20594;-64
2021/11/28 08:13:58;;;;;;;2.27;0.20;;;;;;;;;;5033510;28;20255;-63
2021/11/28 08:16:23;;;;;;;0.30;0.10;;;;;;;;;;5034317;28;20259;-63
2021/11/28 08:18:49;;;;;;;1.30;0.23;;;;;;;;;;5034340;28;20887;-64
2021/11/28 08:21:14;;;;;;;0.38;0.20;;;;;;;;;;5034161;28;20258;-64
2021/11/28 08:23:39;;;;;;;2.00;0.20;;;;;;;;;;5034255;28;20021;-64
2021/11/28 08:26:05;;;;;;;1.17;0.20;;;;;;;;;;5034033;28;20267;-64
2021/11/28 08:28:30;;;;;;;0.68;0.20;;;;;;;;;;5033893;28;20033;-63
2021/11/28 08:30:56;;;;;;;0.37;0.20;;;;;;;;;;5034080;28;20014;-63
2021/11/28 08:33:21;;;;;;;1.13;0.20;;;;;;;;;;5033782;28;20726;-63
2021/11/28 08:35:46;;;;;;;1.13;0.20;;;;;;;;;;5034058;28;20522;-64
2021/11/28 08:38:11;;;;;;;0.30;0.10;;;;;;;;;;5033795;28;20246;-63
2021/11/28 08:40:37;;;;;;;0.38;0.15;;;;;;;;;;5033909;28;20053;-63
2021/11/28 08:43:04;;;;;;;0.10;0.00;;;;;;;;;;5033867;28;20056;-64
2021/11/28 08:45:29;;;;;;;2.00;0.35;;;;;;;;;;5033751;28;20049;-64
2021/11/28 08:47:54;;;;;;;1.90;0.17;;;;;;;;;;5015899;28;20049;-64
2021/11/28 08:50:19;;;;;;;2.88;0.22;;;;;;;;;;5033346;28;20254;-64
2021/11/28 08:52:45;;;;;;;0.52;0.15;;;;;;;;;;5033835;28;20021;-64
2021/11/28 08:55:10;;;;;;;0.70;0.10;;;;;;;;;;5033496;28;20033;-63
2021/11/28 08:57:36;;;;;;;0.60;0.32;;;;;;;;;;5033651;28;20499;-64
2021/11/28 09:00:03;;;;;;;1.13;0.50;;;;;;;;;;5033446;28;20451;-63
2021/11/28 09:02:29;;;;;;;0.20;0.10;;;;;;;;;;5033130;28;20038;-64
2021/11/28 09:04:54;;;;;;;0.70;0.13;;;;;;;;;;5033488;28;20172;-63
2021/11/28 09:07:19;;;;;;;0.52;0.13;;;;;;;;;;5033418;28;20377;-63
2021/11/28 09:09:44;;;;;;;0.43;0.10;;;;;;;;;;5033260;28;20025;-63
2021/11/28 09:12:10;;;;;;;0.55;0.10;;;;;;;;;;5033173;28;20030;-63
2021/11/28 09:14:35;;;;;;;0.88;0.10;;;;;;;;;;5033258;28;20100;-63
2021/11/28 09:17:00;;;;;;;0.33;0.00;;;;;;;;;;5033219;28;20032;-63
2021/11/28 09:19:53;;;;;;;1.40;0.30;;;;;;;;;;5033048;28;20243;-64
2021/11/28 09:22:12;;;;;;;1.75;0.20;;;;;;;;;;5032208;28;20393;-64
2021/11/28 09:24:37;;;;;;;1.27;0.30;;;;;;;;;;5033040;28;20496;-63
2021/11/28 09:27:07;;;;;;;1.58;0.10;;;;;;;;;;5032985;28;20025;-63
2021/11/28 09:29:36;;;;;;;0.20;0.10;;;;;;;;;;5033023;28;20006;-64
2021/11/28 09:32:01;;;;;;;1.10;0.40;;;;;;;;;;5032337;28;20528;-65
2021/11/28 09:34:27;;;;;;;1.15;0.20;;;;;;;;;;5032769;28;20029;-64
2021/11/28 09:36:52;;;;;;;0.77;0.20;;;;;;;;;;5032932;28;20460;-63
2021/11/28 09:39:17;;;;;;;0.40;0.10;;;;;;;;;;5014867;28;20028;-63
2021/11/28 09:41:43;;;;;;;0.30;0.20;;;;;;;;;;5032730;28;20017;-64
2021/11/28 09:44:09;;;;;;;0.60;0.13;;;;;;;;;;5032594;28;20477;-64
2021/11/28 09:46:35;;;;;;;1.17;0.10;;;;;;;;;;5032677;28;20057;-63
2021/11/28 09:49:03;;;;;;;0.90;0.20;;;;;;;;;;5032674;28;20128;-64
2021/11/28 09:51:29;;;;;;;0.98;0.15;;;;;;;;;;5032637;28;20397;-63
2021/11/28 09:53:58;;;;;;;0.47;0.10;;;;;;;;;;5032693;28;20013;-64
2021/11/28 09:56:24;;;;;;;0.63;0.10;;;;;;;;;;5032344;28;20048;-64
2021/11/28 09:58:50;;;;;;;2.05;0.30;;;;;;;;;;5032548;28;20021;-64
2021/11/28 10:01:15;;;;;;;0.73;0.20;;;;;;;;;;5032220;28;20083;-64
2021/11/28 10:03:41;;;;;;;1.40;0.20;;;;;;;;;;5032298;28;20049;-64
2021/11/28 10:06:06;;;;;;;1.75;0.40;;;;;;;;;;5032210;28;20025;-63
2021/11/28 10:08:32;;;;;;;1.05;0.20;;;;;;;;;;5032538;28;20053;-63
2021/11/28 10:11:16;;;;;;;1.08;0.30;;;;;;;;;;5014696;28;20113;-64
2021/11/28 10:13:41;;;;;;;0.73;0.20;;;;;;;;;;5032339;28;20408;-64
2021/11/28 10:16:06;;;;;;;0.17;0.10;;;;;;;;;;5032331;28;20028;-63
2021/11/28 10:18:34;;;;;;;0.63;0.40;;;;;;;;;;5032084;28;20290;-63
2021/11/28 10:21:00;;;;;;;0.32;0.20;;;;;;;;;;5032279;28;20037;-63
2021/11/28 10:23:25;;;;;;;1.05;0.20;;;;;;;;;;5032149;28;20021;-64
2021/11/28 10:25:51;;;;;;;0.77;0.10;;;;;;;;;;5032167;28;20362;-64
2021/11/28 10:28:17;;;;;;;0.85;0.30;;;;;;;;;;5031913;28;20580;-63
2021/11/28 10:30:45;;;;;;;0.45;0.10;;;;;;;;;;5032305;28;20018;-63
2021/11/28 10:33:15;;;;;;;1.33;0.20;;;;;;;;;;5032017;28;20032;-63
2021/11/28 10:35:58;;;;;;;0.57;0.10;;;;;;;;;;5032117;28;20461;-63
2021/11/28 10:38:31;;;;;;;0.93;0.20;;;;;;;;;;5034326;28;20029;-63
2021/11/28 10:40:56;;;;;;;0.43;0.10;;;;;;;;;;5036310;28;20052;-63
2021/11/28 10:43:21;;;;;;;1.88;0.20;;;;;;;;;;5035936;28;20021;-64
2021/11/28 10:45:49;;;;;;;0.50;0.10;;;;;;;;;;5036048;28;20061;-64
2021/11/28 10:48:20;;;;;;;1.38;0.17;;;;;;;;;;5035795;28;20320;-64
2021/11/28 10:50:47;;;;;;;1.45;0.43;;;;;;;;;;5035914;28;20519;-63
2021/11/28 10:53:19;;;;;;;1.20;0.22;;;;;;;;;;5035642;28;20449;-63
2021/11/28 10:55:52;;;;;;;0.50;0.10;;;;;;;;;;5035735;28;20053;-63
2021/11/28 10:58:20;;;;;;;1.15;0.22;;;;;;;;;;5035483;28;20463;-63
2021/11/28 11:00:45;;;;;;;0.95;0.20;;;;;;;;;;5036140;28;20049;-64
2021/11/28 11:03:21;;;;;;;2.58;0.40;;;;;;;;;;5035337;28;20131;-64
2021/11/28 11:05:48;;;;;;;1.88;0.10;;;;;;;;;;5035652;28;20082;-63
2021/11/28 11:08:16;;;;;;;0.70;0.52;;;;;;;;;;5035373;28;20026;-64
2021/11/28 11:10:45;;;;;;;0.73;0.20;;;;;;;;;;5035524;28;20029;-63
2021/11/28 11:13:15;;;;;;;0.45;0.20;;;;;;;;;;5035321;28;20018;-63
2021/11/28 11:15:44;;;;;;;2.22;0.20;;;;;;;;;;5035591;28;20383;-63
2021/11/28 11:18:10;;;;;;;0.88;0.15;;;;;;;;;;5035340;28;20053;-64
2021/11/28 11:20:38;;;;;;;1.17;0.25;;;;;;;;;;5035663;28;20095;-63
2021/11/28 11:23:04;;;;;;;0.68;0.30;;;;;;;;;;5035313;28;20428;-64
2021/11/28 11:25:30;;;;;;;1.65;0.20;;;;;;;;;;5035274;28;20017;-63
2021/11/28 11:28:05;;;;;;;1.25;0.20;;;;;;;;;;5035231;28;20021;-63
2021/11/28 11:30:30;;;;;;;1.58;0.55;;;;;;;;;;5035121;28;20025;-64
2021/11/28 11:32:57;;;;;;;1.23;0.20;;;;;;;;;;5035343;28;20020;-64
2021/11/28 11:35:24;;;;;;;0.08;0.00;;;;;;;;;;5035099;28;20253;-64
2021/11/28 11:37:50;;;;;;;1.15;0.20;;;;;;;;;;5035094;28;20029;-64
2021/11/28 11:40:16;;;;;;;0.65;0.10;;;;;;;;;;5034677;28;20104;-64
2021/11/28 11:42:42;;;;;;;1.08;0.20;;;;;;;;;;5035146;28;20100;-64
2021/11/28 11:45:09;;;;;;;1.60;0.10;;;;;;;;;;5035039;28;20025;-63
2021/11/28 11:47:35;;;;;;;1.02;0.10;;;;;;;;;;5035083;28;20028;-64
2021/11/28 11:50:00;;;;;;;0.50;0.20;;;;;;;;;;5033667;28;20424;-63
2021/11/28 11:52:25;;;;;;;0.40;0.15;;;;;;;;;;5034677;28;20018;-65
2021/11/28 11:54:50;;;;;;;0.63;0.13;;;;;;;;;;5034844;28;20040;-63
2021/11/28 11:57:33;;;;;;;0.73;0.17;;;;;;;;;;5034527;28;20669;-64
2021/11/28 12:00:07;;;;;;;0.82;0.47;;;;;;;;;;5034528;28;20259;-64
2021/11/28 12:02:37;;;;;;;1.77;0.28;;;;;;;;;;5034397;28;20045;-64
2021/11/28 12:05:22;;;;;;;1.17;0.25;;;;;;;;;;5016737;28;20076;-64
2021/11/28 12:07:57;;;;;;;0.98;0.55;;;;;;;;;;5034333;28;20022;-64
2021/11/28 12:10:30;;;;;;;1.33;0.20;;;;;;;;;;5034284;28;20041;-63
2021/11/28 12:12:57;;;;;;;0.77;0.10;;;;;;;;;;5034563;28;20013;-63
2021/11/28 12:15:27;;;;;;;0.38;0.20;;;;;;;;;;5034312;28;20377;-63
2021/11/28 12:17:53;;;;;;;0.45;0.10;;;;;;;;;;5034377;28;20380;-63
2021/11/28 12:20:37;;;;;;;0.82;0.10;;;;;;;;;;5033980;28;20465;-64
2021/11/28 12:23:03;;;;;;;1.60;0.22;;;;;;;;;;5034198;28;20028;-64
2021/11/28 12:25:38;;;;;;;1.10;0.20;;;;;;;;;;5034425;28;20034;-64
2021/11/28 12:28:22;;;;;;;1.15;0.25;;;;;;;;;;5034074;28;20139;-63
2021/11/28 12:30:50;;;;;;;1.43;0.10;;;;;;;;;;5034340;28;20372;-64
2021/11/28 12:33:16;;;;;;;1.10;0.10;;;;;;;;;;5033936;28;20088;-63
2021/11/28 12:35:41;;;;;;;0.52;0.22;;;;;;;;;;5033943;28;20433;-63
2021/11/28 12:38:06;;;;;;;1.20;0.20;;;;;;;;;;5033762;28;20022;-63
2021/11/28 12:40:33;;;;;;;1.05;0.20;;;;;;;;;;5033717;28;20030;-63
2021/11/28 12:43:13;;;;;;;1.05;0.10;;;;;;;;;;5034001;28;20024;-64
2021/11/28 12:45:38;;;;;;;0.47;0.00;;;;;;;;;;5033777;28;20461;-63
2021/11/28 12:48:04;;;;;;;1.30;0.13;;;;;;;;;;5033613;28;20032;-63
2021/11/28 12:50:46;;;;;;;0.35;0.20;;;;;;;;;;5033584;28;20594;-63
2021/11/28 12:53:23;;;;;;;0.50;0.20;;;;;;;;;;5015624;28;20021;-63
2021/11/28 12:56:08;;;;;;;0.32;0.22;;;;;;;;;;5033521;28;20040;-64
2021/11/28 12:58:34;;;;;;;1.77;0.20;;;;;;;;;;5033708;28;20036;-63
2021/11/28 13:00:59;;;;;;;0.93;0.30;;;;;;;;;;5033235;28;20021;-64
2021/11/28 13:03:24;;;;;;;0.73;0.17;;;;;;;;;;5033257;28;20753;-63
2021/11/28 13:05:56;;;;;;;0.73;0.20;;;;;;;;;;5033309;28;20022;-63
2021/11/28 13:08:25;;;;;;;0.57;0.10;;;;;;;;;;5033411;28;20022;-63
2021/11/28 13:11:09;;;;;;;0.43;0.10;;;;;;;;;;5033288;28;20457;-63
2021/11/28 13:13:37;;;;;;;;;;;;;;;;;;5033665;28;20048;-63
2021/11/28 13:16:04;;;;;;;0.40;0.10;;;;;;;;;;5033232;28;19909;-63
2021/11/28 13:18:37;;;;;;;1.17;0.25;;;;;;;;;;5033161;28;20021;-63
2021/11/28 13:21:06;;;;;;;1.02;0.20;;;;;;;;;;5015505;28;20044;-63
2021/11/28 13:23:32;;;;;;;0.75;0.30;;;;;;;;;;5033030;28;20064;-63
2021/11/28 13:25:57;;;;;;;0.90;0.20;;;;;;;;;;5033009;28;20018;-63
2021/11/28 13:28:27;;;;;;;1.30;0.20;;;;;;;;;;5032710;28;20461;-63
2021/11/28 13:30:53;;;;;;;1.30;0.40;;;;;;;;;;5033046;28;20014;-64
2021/11/28 13:33:23;;;;;;;1.65;0.30;;;;;;;;;;5032770;28;20017;-64
2021/11/28 13:36:07;;;;;;;1.20;0.20;;;;;;;;;;5032937;28;20021;-64
2021/11/28 13:38:44;;;;;;;0.35;0.20;;;;;;;;;;5032738;28;20021;-63
2021/11/28 13:41:12;;;;;;;0.75;0.10;;;;;;;;;;5032682;28;20029;-62
2021/11/28 13:43:39;;;;;;;0.95;0.13;;;;;;;;;;5032689;28;20025;-63
2021/11/28 13:46:04;;;;;;;1.45;0.50;;;;;;;;;;5032518;28;20476;-63
2021/11/28 13:48:38;;;;;;;0.98;0.13;;;;;;;;;;5032889;28;20021;-64
2021/11/28 13:51:03;;;;;;;0.30;0.10;;;;;;;;;;5032674;28;20014;-64
2021/11/28 13:53:28;;;;;;;0.70;0.23;;;;;;;;;;5032651;28;20105;-64
2021/11/28 13:55:53;;;;;;;1.00;0.23;;;;;;;;;;5032563;28;20571;-63
2021/11/28 13:58:22;;;;;;;0.30;0.10;;;;;;;;;;5032288;28;20251;-63
2021/11/28 14:00:48;;;;;;;1.55;0.20;;;;;;;;;;5032498;28;20247;-63
2021/11/28 14:03:13;;;;;;;1.00;0.30;;;;;;;;;;5031977;28;20511;-63
2021/11/28 14:05:38;;;;;;;0.13;0.10;;;;;;;;;;5032466;28;20370;-63
2021/11/28 14:08:03;;;;;;;1.20;0.30;;;;;;;;;;5032236;28;20437;-64
2021/11/28 14:10:30;;;;;;;0.73;0.10;;;;;;;;;;5032202;28;20516;-63
2021/11/28 14:12:56;;;;;;;0.47;0.10;;;;;;;;;;5031778;28;20048;-63
2021/11/28 14:15:25;;;;;;;0.45;0.10;;;;;;;;;;5032104;28;20053;-64
2021/11/28 14:18:09;;;;;;;0.93;0.22;;;;;;;;;;5031521;28;20029;-64
2021/11/28 14:20:35;;;;;;;;;;;;;;;;;;5032505;28;20040;-63
2021/11/28 14:23:00;;;;;;;0.67;0.40;;;;;;;;;;5032063;28;19905;-64
2021/11/28 14:25:38;;;;;;;0.40;0.10;;;;;;;;;;5032110;28;20275;-63
2021/11/28 14:28:03;;;;;;;3.15;0.45;;;;;;;;;;5014344;28;20017;-63
2021/11/28 14:30:29;;;;;;;0.73;0.20;;;;;;;;;;5032038;28;20024;-64
2021/11/28 14:33:01;;;;;;;1.23;0.17;;;;;;;;;;5014404;28;20061;-64
2021/11/28 14:35:27;;;;;;;1.20;0.20;;;;;;;;;;5031959;28;20797;-64
2021/11/28 14:38:10;;;;;;;0.57;0.10;;;;;;;;;;5032011;28;20105;-63
2021/11/28 14:40:36;;;;;;;0.82;0.30;;;;;;;;;;5031931;28;20033;-64
2021/11/28 14:43:02;;;;;;;0.25;0.20;;;;;;;;;;5032060;28;20037;-63